createdAt,value
2023-05-05T00:00:39.122Z,36.83
2023-05-05T00:01:51.849Z,36.72
2023-05-05T00:02:59.986Z,36.58
2023-05-05T00:04:06.910Z,36.65
2023-05-05T00:05:14.075Z,36.88
2023-05-05T00:06:21.348Z,36.77
2023-05-05T00:07:28.255Z,36.54
2023-05-05T00:08:35.048Z,36.60
2023-05-05T00:09:42.586Z,36.87
2023-05-05T00:10:53.528Z,36.80
2023-05-05T00:12:01.139Z,36.61
2023-05-05T00:13:08.349Z,36.64
2023-05-05T00:14:16.645Z,36.83
2023-05-05T00:15:23.669Z,36.82
2023-05-05T00:16:31.321Z,36.59
2023-05-05T00:17:40.083Z,36.55
2023-05-05T00:18:47.587Z,36.76
2023-05-05T00:19:54.758Z,36.75
2023-05-05T00:21:02.056Z,36.66
2023-05-05T00:22:09.885Z,36.48
2023-05-05T00:23:17.925Z,36.65
2023-05-05T00:24:24.810Z,36.77
2023-05-05T00:25:32.501Z,36.65
2023-05-05T00:26:40.659Z,36.64
2023-05-05T00:27:47.727Z,36.81
2023-05-05T00:28:55.534Z,36.73
2023-05-05T00:30:02.421Z,36.74
2023-05-05T00:31:09.997Z,36.67
2023-05-05T00:32:18.117Z,36.73
2023-05-05T00:33:27.147Z,36.84
2023-05-05T00:34:34.658Z,36.62
2023-05-05T00:35:42.559Z,36.61
2023-05-05T00:36:50.653Z,36.60
2023-05-05T00:37:58.378Z,36.64
2023-05-05T00:39:07.035Z,36.68
2023-05-05T00:40:14.671Z,36.58
2023-05-05T00:41:22.095Z,36.68
2023-05-05T00:42:28.951Z,36.70
2023-05-05T00:43:35.760Z,36.72
2023-05-05T00:44:43.500Z,36.67
2023-05-05T00:45:50.529Z,36.79
2023-05-05T00:46:57.920Z,36.73
2023-05-05T00:48:05.406Z,36.72
2023-05-05T00:49:13.058Z,36.72
2023-05-05T00:50:29.004Z,36.73
2023-05-05T00:51:35.781Z,36.68
2023-05-05T00:52:42.678Z,36.72
2023-05-05T00:53:50.026Z,36.77
2023-05-05T00:54:56.718Z,36.71
2023-05-05T00:56:03.635Z,36.71
2023-05-05T00:57:10.884Z,36.68
2023-05-05T00:58:17.749Z,36.56
2023-05-05T00:59:25.667Z,36.68
2023-05-05T01:00:33.750Z,36.67
2023-05-05T01:01:42.357Z,36.77
2023-05-05T01:02:50.009Z,36.80
2023-05-05T01:03:57.157Z,36.69
2023-05-05T01:05:05.911Z,36.77
2023-05-05T01:06:38.359Z,36.82
2023-05-05T01:08:22.269Z,36.72
2023-05-05T01:10:07.284Z,36.81
2023-05-05T01:11:57.109Z,36.75
2023-05-05T01:13:27.973Z,36.91
2023-05-05T01:14:46.658Z,36.80
2023-05-05T01:16:25.369Z,36.81
2023-05-05T01:17:49.613Z,36.79
2023-05-05T01:19:32.026Z,36.79
2023-05-05T01:20:51.603Z,36.85
2023-05-05T01:22:02.313Z,36.79
2023-05-05T01:23:10.545Z,36.79
2023-05-05T01:24:46.287Z,36.82
2023-05-05T01:26:12.248Z,36.75
2023-05-05T01:27:49.113Z,36.79
2023-05-05T01:29:09.965Z,36.83
2023-05-05T01:30:55.773Z,36.88
2023-05-05T01:32:11.767Z,36.72
2023-05-05T01:33:21.692Z,36.83
2023-05-05T01:34:31.226Z,36.81
2023-05-05T01:35:43.313Z,36.82
2023-05-05T01:36:54.665Z,36.81
2023-05-05T01:38:08.199Z,36.80
2023-05-05T01:39:17.532Z,36.73
2023-05-05T01:40:27.785Z,36.79
2023-05-05T01:41:46.350Z,36.79
2023-05-05T01:42:53.025Z,36.79
2023-05-05T01:44:00.857Z,36.69
2023-05-05T01:45:09.188Z,36.77
2023-05-05T01:46:16.138Z,36.83
2023-05-05T01:47:24.039Z,36.74
2023-05-05T01:48:32.464Z,36.73
2023-05-05T01:49:39.727Z,36.79
2023-05-05T01:50:48.817Z,36.72
2023-05-05T01:51:55.502Z,36.77
2023-05-05T01:53:02.808Z,36.78
2023-05-05T01:54:10.570Z,36.90
2023-05-05T01:55:17.988Z,36.88
2023-05-05T01:56:25.538Z,36.71
2023-05-05T01:57:32.960Z,36.79
2023-05-05T01:58:40.413Z,36.75
2023-05-05T01:59:48.308Z,36.71
2023-05-05T02:00:55.409Z,36.67
2023-05-05T02:02:03.847Z,36.74
2023-05-05T02:03:11.097Z,36.81
2023-05-05T02:04:19.159Z,36.77
2023-05-05T02:05:26.595Z,36.83
2023-05-05T02:06:33.653Z,36.69
2023-05-05T02:07:41.649Z,36.67
2023-05-05T02:08:49.486Z,36.77
2023-05-05T02:09:57.176Z,36.85
2023-05-05T02:11:03.972Z,36.76
2023-05-05T02:12:11.317Z,36.71
2023-05-05T02:13:18.282Z,36.72
2023-05-05T02:14:25.660Z,36.63
2023-05-05T02:15:33.151Z,36.82
2023-05-05T02:16:42.750Z,36.76
2023-05-05T02:17:49.689Z,36.69
2023-05-05T02:18:57.029Z,36.67
2023-05-05T02:20:04.679Z,36.81
2023-05-05T02:21:11.484Z,36.78
2023-05-05T02:22:18.399Z,36.80
2023-05-05T02:23:25.713Z,36.66
2023-05-05T02:24:34.555Z,36.82
2023-05-05T02:25:43.979Z,36.82
2023-05-05T02:26:51.921Z,36.78
2023-05-05T02:27:59.094Z,36.79
2023-05-05T02:29:09.061Z,36.70
2023-05-05T02:30:17.801Z,36.76
2023-05-05T02:31:24.791Z,36.72
2023-05-05T02:32:39.530Z,36.82
2023-05-05T02:33:47.386Z,36.75
2023-05-05T02:34:54.618Z,36.77
2023-05-05T02:36:02.027Z,36.70
2023-05-05T02:37:11.574Z,36.76
2023-05-05T02:38:19.551Z,36.65
2023-05-05T02:39:33.485Z,36.75
2023-05-05T02:40:43.285Z,36.79
2023-05-05T02:41:50.546Z,36.64
2023-05-05T02:43:08.174Z,36.75
2023-05-05T02:44:15.304Z,36.72
2023-05-05T02:45:23.106Z,36.76
2023-05-05T02:46:30.016Z,36.72
2023-05-05T02:47:40.328Z,36.83
2023-05-05T02:48:47.369Z,36.79
2023-05-05T02:49:54.440Z,36.78
2023-05-05T02:51:01.018Z,36.77
2023-05-05T02:52:12.467Z,36.70
2023-05-05T02:53:21.789Z,36.70
2023-05-05T02:54:29.168Z,36.76
2023-05-05T02:55:44.870Z,36.74
2023-05-05T02:56:52.674Z,36.72
2023-05-05T02:58:06.791Z,36.79
2023-05-05T02:59:48.793Z,36.75
2023-05-05T03:01:14.034Z,36.78
2023-05-05T03:02:23.843Z,36.67
2023-05-05T03:03:58.615Z,36.68
2023-05-05T03:05:15.122Z,36.70
2023-05-05T03:06:24.786Z,36.78
2023-05-05T03:07:52.252Z,36.73
2023-05-05T03:09:21.131Z,36.77
2023-05-05T03:10:33.030Z,36.77
2023-05-05T03:11:58.775Z,36.92
2023-05-05T03:13:05.596Z,36.84
2023-05-05T03:14:20.459Z,36.75
2023-05-05T03:15:32.891Z,36.74
2023-05-05T03:16:41.600Z,36.72
2023-05-05T03:17:48.566Z,36.67
2023-05-05T03:18:56.091Z,36.48
2023-05-05T03:20:03.899Z,36.25
2023-05-05T03:21:12.070Z,35.80
2023-05-05T03:22:20.837Z,35.25
2023-05-05T03:23:27.772Z,34.53
2023-05-05T03:24:36.972Z,34.16
2023-05-05T03:25:47.826Z,33.61
2023-05-05T03:27:05.992Z,32.94
2023-05-05T03:28:17.069Z,32.54
2023-05-05T03:29:23.745Z,31.96
2023-05-05T03:30:30.543Z,31.39
2023-05-05T03:31:37.445Z,30.93
2023-05-05T03:32:44.127Z,30.56
2023-05-05T03:33:51.376Z,30.12
2023-05-05T03:34:59.730Z,29.66
2023-05-05T03:36:11.004Z,29.17
2023-05-05T03:37:17.738Z,28.74
2023-05-05T03:38:25.287Z,28.35
2023-05-05T03:39:32.625Z,27.94
2023-05-05T03:40:44.236Z,27.54
2023-05-05T03:41:52.671Z,27.18
2023-05-05T03:43:03.050Z,26.82
2023-05-05T03:44:13.182Z,26.43
2023-05-05T03:45:21.378Z,26.11
2023-05-05T03:46:29.498Z,25.66
2023-05-05T03:47:36.758Z,25.41
2023-05-05T03:48:44.354Z,25.11
2023-05-05T03:49:51.824Z,24.68
2023-05-05T03:50:59.356Z,24.36
2023-05-05T03:52:07.757Z,24.18
2023-05-05T03:53:15.126Z,23.77
2023-05-05T03:54:23.094Z,23.32
2023-05-05T03:55:31.193Z,23.07
2023-05-05T03:56:38.433Z,22.75
2023-05-05T03:57:47.051Z,22.49
2023-05-05T03:58:58.227Z,22.30
2023-05-05T04:00:05.688Z,21.93
2023-05-05T04:01:20.702Z,21.74
2023-05-05T04:02:27.658Z,21.46
2023-05-05T04:03:35.137Z,21.20
2023-05-05T04:04:42.386Z,20.82
2023-05-05T04:05:49.489Z,20.62
2023-05-05T04:06:59.592Z,20.27
2023-05-05T04:08:10.075Z,20.03
2023-05-05T04:09:17.659Z,19.67
2023-05-05T04:10:24.641Z,19.44
2023-05-05T04:11:31.684Z,19.25
2023-05-05T04:12:38.598Z,18.94
2023-05-05T04:13:45.940Z,18.80
2023-05-05T04:14:53.258Z,18.62
2023-05-05T04:16:01.066Z,18.24
2023-05-05T04:17:08.750Z,17.94
2023-05-05T04:18:17.387Z,17.08
2023-05-05T04:19:24.985Z,15.79
2023-05-05T04:20:32.789Z,15.64
2023-05-05T04:21:40.983Z,15.64
2023-05-05T04:22:49.116Z,15.31
2023-05-05T04:23:59.277Z,15.26
2023-05-05T04:25:07.096Z,15.07
2023-05-05T04:26:14.487Z,14.62
2023-05-05T04:27:22.984Z,14.57
2023-05-05T04:28:30.636Z,14.60
2023-05-05T04:29:38.246Z,14.43
2023-05-05T04:30:45.377Z,14.42
2023-05-05T04:31:52.419Z,14.31
2023-05-05T04:33:00.070Z,14.17
2023-05-05T04:34:08.504Z,13.97
2023-05-05T04:35:16.943Z,14.00
2023-05-05T04:36:24.398Z,13.91
2023-05-05T04:37:31.939Z,13.97
2023-05-05T04:38:39.735Z,13.86
2023-05-05T04:39:47.862Z,13.69
2023-05-05T04:40:57.043Z,13.56
2023-05-05T04:42:05.252Z,13.39
2023-05-05T04:43:13.692Z,13.38
2023-05-05T04:44:21.272Z,13.36
2023-05-05T04:45:29.377Z,13.41
2023-05-05T04:46:37.920Z,13.20
2023-05-05T04:47:45.384Z,13.07
2023-05-05T04:48:52.441Z,13.00
2023-05-05T04:50:00.883Z,12.95
2023-05-05T04:51:09.219Z,12.74
2023-05-05T04:52:17.695Z,12.68
2023-05-05T04:53:25.272Z,12.64
2023-05-05T04:54:33.134Z,12.59
2023-05-05T04:55:41.341Z,12.52
2023-05-05T04:56:49.641Z,12.57
2023-05-05T04:57:57.548Z,12.35
2023-05-05T04:59:06.299Z,12.36
2023-05-05T05:00:15.412Z,12.37
2023-05-05T05:01:22.648Z,12.22
2023-05-05T05:02:32.857Z,12.13
2023-05-05T05:03:40.143Z,11.97
2023-05-05T05:04:48.441Z,12.02
2023-05-05T05:05:56.944Z,12.24
2023-05-05T05:07:04.712Z,11.97
2023-05-05T05:08:12.551Z,12.02
2023-05-05T05:09:21.322Z,11.86
2023-05-05T05:10:30.104Z,11.84
2023-05-05T05:11:38.932Z,11.81
2023-05-05T05:12:45.894Z,11.54
2023-05-05T05:13:52.710Z,11.55
2023-05-05T05:14:59.797Z,11.52
2023-05-05T05:16:08.352Z,11.67
2023-05-05T05:17:16.867Z,11.58
2023-05-05T05:18:24.666Z,11.53
2023-05-05T05:19:33.912Z,11.57
2023-05-05T05:20:41.817Z,11.65
2023-05-05T05:21:48.962Z,11.50
2023-05-05T05:22:56.980Z,11.40
2023-05-05T05:24:04.208Z,11.41
2023-05-05T05:25:11.906Z,11.23
2023-05-05T05:26:20.204Z,11.19
2023-05-05T05:27:27.926Z,11.20
2023-05-05T05:28:36.515Z,11.11
2023-05-05T05:29:45.563Z,11.27
2023-05-05T05:30:54.117Z,11.14
2023-05-05T05:32:02.116Z,11.02
2023-05-05T05:33:10.254Z,10.92
2023-05-05T05:34:18.126Z,10.86
2023-05-05T05:35:26.602Z,10.99
2023-05-05T05:36:34.397Z,10.90
2023-05-05T05:37:41.493Z,10.82
2023-05-05T05:38:48.556Z,10.69
2023-05-05T05:39:56.689Z,10.62
2023-05-05T05:41:09.118Z,10.66
2023-05-05T05:42:17.151Z,10.49
2023-05-05T05:43:25.014Z,10.49
2023-05-05T05:44:32.517Z,10.55
2023-05-05T05:45:41.057Z,10.40
2023-05-05T05:46:48.411Z,10.34
2023-05-05T05:47:56.063Z,10.43
2023-05-05T05:49:03.157Z,10.37
2023-05-05T05:50:11.107Z,10.32
2023-05-05T05:51:19.678Z,10.29
2023-05-05T05:52:28.188Z,10.30
2023-05-05T05:53:35.870Z,10.27
2023-05-05T05:54:43.020Z,10.21
2023-05-05T05:55:50.539Z,10.21
2023-05-05T05:56:58.389Z,10.16
2023-05-05T05:58:05.420Z,10.20
2023-05-05T05:59:13.188Z,10.18
2023-05-05T06:00:20.771Z,10.08
2023-05-05T06:01:30.507Z,10.06
2023-05-05T06:02:38.706Z,10.11
2023-05-05T06:03:46.585Z,9.98
2023-05-05T06:04:54.614Z,10.04
2023-05-05T06:06:01.502Z,9.98
2023-05-05T06:07:11.469Z,9.88
2023-05-05T06:08:19.110Z,9.88
2023-05-05T06:09:30.594Z,9.81
2023-05-05T06:10:37.896Z,9.77
2023-05-05T06:11:48.705Z,9.88
2023-05-05T06:12:56.879Z,9.82
2023-05-05T06:14:03.734Z,9.84
2023-05-05T06:15:11.609Z,9.82
2023-05-05T06:16:19.775Z,9.69
2023-05-05T06:17:27.535Z,9.56
2023-05-05T06:18:36.055Z,9.57
2023-05-05T06:19:44.495Z,9.55
2023-05-05T06:20:52.372Z,9.58
2023-05-05T06:22:01.136Z,9.47
2023-05-05T06:23:08.688Z,9.58
2023-05-05T06:24:18.471Z,9.45
2023-05-05T06:25:26.604Z,9.53
2023-05-05T06:26:33.801Z,9.64
2023-05-05T06:27:41.562Z,9.63
2023-05-05T06:28:48.503Z,9.46
2023-05-05T06:29:57.033Z,9.39
2023-05-05T06:31:04.868Z,9.36
2023-05-05T06:32:14.967Z,9.42
2023-05-05T06:33:23.402Z,9.32
2023-05-05T06:34:31.058Z,9.33
2023-05-05T06:35:38.463Z,9.38
2023-05-05T06:36:45.529Z,9.35
2023-05-05T06:37:53.120Z,9.45
2023-05-05T06:39:00.688Z,9.31
2023-05-05T06:40:09.270Z,9.27
2023-05-05T06:41:17.594Z,9.24
2023-05-05T06:42:25.179Z,9.32
2023-05-05T06:43:33.403Z,9.21
2023-05-05T06:44:41.031Z,9.13
2023-05-05T06:45:48.155Z,9.17
2023-05-05T06:46:56.596Z,9.04
2023-05-05T06:48:03.720Z,8.99
2023-05-05T06:49:11.516Z,9.06
2023-05-05T06:50:18.509Z,9.05
2023-05-05T06:51:26.493Z,9.11
2023-05-05T06:52:33.864Z,9.06
2023-05-05T06:53:41.414Z,9.02
2023-05-05T06:54:48.231Z,8.96
2023-05-05T06:55:55.362Z,9.00
2023-05-05T06:57:03.116Z,9.05
2023-05-05T06:58:10.537Z,8.93
2023-05-05T06:59:21.093Z,8.96
2023-05-05T07:00:28.918Z,8.86
2023-05-05T07:01:36.136Z,9.02
2023-05-05T07:02:43.583Z,8.95
2023-05-05T07:03:50.597Z,8.88
2023-05-05T07:04:58.012Z,8.84
2023-05-05T07:06:05.693Z,8.87
2023-05-05T07:07:12.414Z,8.82
2023-05-05T07:08:19.288Z,9.06
2023-05-05T07:09:26.161Z,8.94
2023-05-05T07:10:33.179Z,8.92
2023-05-05T07:11:40.050Z,8.86
2023-05-05T07:12:47.324Z,8.87
2023-05-05T07:13:56.927Z,8.88
2023-05-05T07:15:15.499Z,8.93
2023-05-05T07:16:32.574Z,8.81
2023-05-05T07:17:39.935Z,8.78
2023-05-05T07:18:48.256Z,8.68
2023-05-05T07:19:57.655Z,8.85
2023-05-05T07:21:07.251Z,8.77
2023-05-05T07:22:15.011Z,8.75
2023-05-05T07:23:22.963Z,8.78
2023-05-05T07:24:31.231Z,8.79
2023-05-05T07:25:39.075Z,8.76
2023-05-05T07:26:46.283Z,8.63
2023-05-05T07:27:54.451Z,8.74
2023-05-05T07:29:01.592Z,8.61
2023-05-05T07:30:13.967Z,8.68
2023-05-05T07:31:23.740Z,8.72
2023-05-05T07:32:31.569Z,8.70
2023-05-05T07:33:39.412Z,8.68
2023-05-05T07:34:46.943Z,8.69
2023-05-05T07:35:55.098Z,8.63
2023-05-05T07:37:02.252Z,8.50
2023-05-05T07:38:10.874Z,8.53
2023-05-05T07:39:19.601Z,8.49
2023-05-05T07:40:28.840Z,8.52
2023-05-05T07:41:36.292Z,8.59
2023-05-05T07:42:43.251Z,8.49
2023-05-05T07:43:50.027Z,8.51
2023-05-05T07:44:58.493Z,8.41
2023-05-05T07:46:05.876Z,8.51
2023-05-05T07:47:13.885Z,8.49
2023-05-05T07:48:21.758Z,8.55
2023-05-05T07:49:30.215Z,8.56
2023-05-05T07:50:38.714Z,8.46
2023-05-05T07:51:46.114Z,8.63
2023-05-05T07:52:59.390Z,8.45
2023-05-05T07:54:18.074Z,8.45
2023-05-05T07:55:26.226Z,8.48
2023-05-05T07:56:34.378Z,8.52
2023-05-05T07:57:42.525Z,8.46
2023-05-05T07:58:49.740Z,8.57
2023-05-05T07:59:57.739Z,8.35
2023-05-05T08:01:08.310Z,8.44
2023-05-05T08:02:16.793Z,8.32
2023-05-05T08:03:26.280Z,8.40
2023-05-05T08:04:33.493Z,8.50
2023-05-05T08:05:41.260Z,8.40
2023-05-05T08:06:48.172Z,8.40
2023-05-05T08:07:55.793Z,8.38
2023-05-05T08:09:03.194Z,8.39
2023-05-05T08:10:13.127Z,8.40
2023-05-05T08:11:22.626Z,8.43
2023-05-05T08:12:30.302Z,8.29
2023-05-05T08:13:38.077Z,8.27
2023-05-05T08:14:45.716Z,8.44
2023-05-05T08:15:54.362Z,8.43
2023-05-05T08:17:02.067Z,8.38
2023-05-05T08:18:09.845Z,8.18
2023-05-05T08:19:28.764Z,8.36
2023-05-05T08:20:38.320Z,8.21
2023-05-05T08:21:45.078Z,8.27
2023-05-05T08:22:54.142Z,8.31
2023-05-05T08:24:01.900Z,8.22
2023-05-05T08:25:09.448Z,8.26
2023-05-05T08:26:18.137Z,8.23
2023-05-05T08:27:26.561Z,8.28
2023-05-05T08:28:35.643Z,8.26
2023-05-05T08:29:42.853Z,8.22
2023-05-05T08:30:52.323Z,8.16
2023-05-05T08:32:00.490Z,8.21
2023-05-05T08:33:08.904Z,8.17
2023-05-05T08:34:17.896Z,8.04
2023-05-05T08:35:25.366Z,8.09
2023-05-05T08:36:34.238Z,8.08
2023-05-05T08:37:42.133Z,8.06
2023-05-05T08:38:50.035Z,8.12
2023-05-05T08:39:59.325Z,8.02
2023-05-05T08:41:08.652Z,8.14
2023-05-05T08:42:28.994Z,8.14
2023-05-05T08:43:40.725Z,8.04
2023-05-05T08:44:48.769Z,8.00
2023-05-05T08:45:56.528Z,7.92
2023-05-05T08:47:05.760Z,8.07
2023-05-05T08:48:13.214Z,8.15
2023-05-05T08:49:21.276Z,8.15
2023-05-05T08:50:30.445Z,7.95
2023-05-05T08:51:42.432Z,7.93
2023-05-05T08:52:50.702Z,7.92
2023-05-05T08:54:01.233Z,7.97
2023-05-05T08:55:16.830Z,7.97
2023-05-05T08:56:29.450Z,7.94
2023-05-05T08:57:45.690Z,7.98
2023-05-05T08:58:53.770Z,7.75
2023-05-05T09:00:02.118Z,7.83
2023-05-05T09:01:09.430Z,7.88
2023-05-05T09:02:17.362Z,7.91
2023-05-05T09:03:25.005Z,7.97
2023-05-05T09:04:33.123Z,7.93
2023-05-05T09:05:40.685Z,7.79
2023-05-05T09:06:47.425Z,7.89
2023-05-05T09:07:54.935Z,7.87
2023-05-05T09:09:02.453Z,7.87
2023-05-05T09:10:12.394Z,7.97
2023-05-05T09:11:19.557Z,7.82
2023-05-05T09:12:29.898Z,7.81
2023-05-05T09:14:59.031Z,7.67
2023-05-05T09:16:06.800Z,7.74
2023-05-05T09:17:27.977Z,7.80
2023-05-05T09:18:34.699Z,7.70
2023-05-05T09:20:11.055Z,7.74
2023-05-05T09:21:26.208Z,7.58
2023-05-05T09:22:42.149Z,7.71
2023-05-05T09:24:10.415Z,7.81
2023-05-05T09:25:21.963Z,7.59
2023-05-05T09:26:29.564Z,7.81
2023-05-05T09:27:41.194Z,7.70
2023-05-05T09:28:55.102Z,7.80
2023-05-05T09:30:01.970Z,7.70
2023-05-05T09:31:16.950Z,7.71
2023-05-05T09:32:23.922Z,7.54
2023-05-05T09:33:32.697Z,7.75
2023-05-05T09:34:39.781Z,7.69
2023-05-05T09:35:56.254Z,7.67
2023-05-05T09:37:03.264Z,7.69
2023-05-05T09:38:16.636Z,7.53
2023-05-05T09:39:23.234Z,7.61
2023-05-05T09:40:30.044Z,7.46
2023-05-05T09:41:44.835Z,7.63
2023-05-05T09:43:02.056Z,7.65
2023-05-05T09:44:09.956Z,7.52
2023-05-05T09:45:29.794Z,7.45
2023-05-05T09:46:37.609Z,7.40
2023-05-05T09:47:44.368Z,7.40
2023-05-05T09:48:52.479Z,7.39
2023-05-05T09:50:00.894Z,7.46
2023-05-05T09:51:08.637Z,7.44
2023-05-05T09:52:17.668Z,7.34
2023-05-05T09:53:26.724Z,7.37
2023-05-05T09:54:37.279Z,7.47
2023-05-05T09:55:45.959Z,7.34
2023-05-05T09:56:53.790Z,7.40
2023-05-05T09:58:23.646Z,7.20
2023-05-05T09:59:32.188Z,7.32
2023-05-05T10:00:41.651Z,7.31
2023-05-05T10:01:50.353Z,7.28
2023-05-05T10:02:58.862Z,7.43
2023-05-05T10:04:07.049Z,7.23
2023-05-05T10:05:16.193Z,7.19
2023-05-05T10:06:23.621Z,7.30
2023-05-05T10:07:30.436Z,7.33
2023-05-05T10:08:37.890Z,7.23
2023-05-05T10:09:44.529Z,7.18
2023-05-05T10:11:05.716Z,7.21
2023-05-05T10:12:14.092Z,7.12
2023-05-05T10:13:23.878Z,7.19
2023-05-05T10:14:32.377Z,7.17
2023-05-05T10:15:39.773Z,7.17
2023-05-05T10:16:54.787Z,7.21
2023-05-05T10:18:07.042Z,7.15
2023-05-05T10:19:16.109Z,7.19
2023-05-05T10:20:22.816Z,7.12
2023-05-05T10:21:29.601Z,7.17
2023-05-05T10:22:37.990Z,7.25
2023-05-05T10:23:50.726Z,7.14
2023-05-05T10:25:11.486Z,7.05
2023-05-05T10:26:18.871Z,6.76
2023-05-05T10:27:26.655Z,7.02
2023-05-05T10:28:47.615Z,7.08
2023-05-05T10:30:06.945Z,7.02
2023-05-05T10:31:26.360Z,6.89
2023-05-05T10:33:07.953Z,6.87
2023-05-05T10:34:37.932Z,6.93
2023-05-05T10:35:45.999Z,7.01
2023-05-05T10:36:55.134Z,7.04
2023-05-05T10:38:04.617Z,6.93
2023-05-05T10:39:13.084Z,6.96
2023-05-05T10:40:21.091Z,6.84
2023-05-05T10:41:29.084Z,6.70
2023-05-05T10:42:37.341Z,6.76
2023-05-05T10:43:44.120Z,6.75
2023-05-05T10:44:54.726Z,6.69
2023-05-05T10:46:01.762Z,6.60
2023-05-05T10:47:08.912Z,6.61
2023-05-05T10:48:21.863Z,6.64
2023-05-05T10:49:44.601Z,6.59
2023-05-05T10:50:54.520Z,6.59
2023-05-05T10:52:22.945Z,6.61
2023-05-05T10:53:32.886Z,6.54
2023-05-05T10:54:58.087Z,6.53
2023-05-05T10:56:08.742Z,6.40
2023-05-05T10:57:16.564Z,6.57
2023-05-05T10:58:50.981Z,6.52
2023-05-05T10:59:59.475Z,6.50
2023-05-05T11:01:08.676Z,6.52
2023-05-05T11:02:23.631Z,6.50
2023-05-05T11:03:30.906Z,6.49
2023-05-05T11:04:40.477Z,6.41
2023-05-05T11:06:10.949Z,6.46
2023-05-05T11:07:24.721Z,6.40
2023-05-05T11:08:40.498Z,6.32
2023-05-05T11:10:03.130Z,6.27
2023-05-05T11:11:14.760Z,6.26
2023-05-05T11:12:23.278Z,6.23
2023-05-05T11:13:31.717Z,6.33
2023-05-05T11:14:38.954Z,6.30
2023-05-05T11:15:45.795Z,6.35
2023-05-05T11:16:52.889Z,6.33
2023-05-05T11:18:01.140Z,6.33
2023-05-05T11:19:49.528Z,6.29
2023-05-05T11:21:17.464Z,5.95
2023-05-05T11:22:24.261Z,6.00
2023-05-05T11:23:30.860Z,6.26
2023-05-05T11:24:37.562Z,6.15
2023-05-05T11:25:48.499Z,6.01
2023-05-05T11:26:55.055Z,6.04
2023-05-05T11:28:19.131Z,6.17
2023-05-05T11:29:27.009Z,6.17
2023-05-05T11:30:34.403Z,6.08
2023-05-05T11:31:41.365Z,5.99
2023-05-05T11:33:27.829Z,5.99
2023-05-05T11:34:35.088Z,5.95
2023-05-05T11:36:05.774Z,6.16
2023-05-05T11:37:17.783Z,6.07
2023-05-05T11:39:01.687Z,6.14
2023-05-05T11:40:27.070Z,6.19
2023-05-05T11:41:55.408Z,6.22
2023-05-05T11:43:09.885Z,6.20
2023-05-05T11:44:18.860Z,6.45
2023-05-05T11:45:26.925Z,6.35
2023-05-05T11:46:35.057Z,6.57
2023-05-05T11:47:42.667Z,6.54
2023-05-05T11:48:50.517Z,6.54
2023-05-05T11:49:57.865Z,6.60
2023-05-05T11:51:06.849Z,6.73
2023-05-05T11:52:16.140Z,6.68
2023-05-05T11:53:23.092Z,6.60
2023-05-05T11:54:31.176Z,6.54
2023-05-05T11:55:37.993Z,6.72
2023-05-05T11:56:53.583Z,6.81
2023-05-05T11:58:00.655Z,6.62
2023-05-05T11:59:11.926Z,6.70
2023-05-05T12:00:19.093Z,6.69
2023-05-05T12:01:26.840Z,6.69
2023-05-05T12:02:34.358Z,6.77
2023-05-05T12:03:46.917Z,6.79
2023-05-05T12:04:54.492Z,6.83
2023-05-05T12:06:01.829Z,6.90
2023-05-05T12:07:08.966Z,6.86
2023-05-05T12:08:18.769Z,6.90
2023-05-05T12:09:25.595Z,6.92
2023-05-05T12:10:32.680Z,6.87
2023-05-05T12:11:54.705Z,6.87
2023-05-05T12:13:02.912Z,6.90
2023-05-05T12:14:13.470Z,7.10
2023-05-05T12:15:30.909Z,6.84
2023-05-05T12:16:38.780Z,6.89
2023-05-05T12:17:47.839Z,7.14
2023-05-05T12:19:09.118Z,7.13
2023-05-05T12:20:16.091Z,7.22
2023-05-05T12:21:24.172Z,7.23
2023-05-05T12:22:31.721Z,7.11
2023-05-05T12:23:43.024Z,7.16
2023-05-05T12:25:03.543Z,7.18
2023-05-05T12:26:25.561Z,7.15
2023-05-05T12:27:33.699Z,7.08
2023-05-05T12:28:50.513Z,7.19
2023-05-05T12:29:58.731Z,7.39
2023-05-05T12:31:06.989Z,7.31
2023-05-05T12:32:26.202Z,7.20
2023-05-05T12:33:34.683Z,7.18
2023-05-05T12:34:42.715Z,7.28
2023-05-05T12:35:49.284Z,7.50
2023-05-05T12:36:57.587Z,7.23
2023-05-05T12:38:05.750Z,7.20
2023-05-05T12:39:13.881Z,7.20
2023-05-05T12:40:51.170Z,7.22
2023-05-05T12:42:06.462Z,7.34
2023-05-05T12:43:36.122Z,7.23
2023-05-05T12:44:46.138Z,7.27
2023-05-05T12:46:13.843Z,7.30
2023-05-05T12:47:39.149Z,7.26
2023-05-05T12:48:48.305Z,7.30
2023-05-05T12:49:56.519Z,7.35
2023-05-05T12:51:18.433Z,7.29
2023-05-05T12:52:26.182Z,7.18
2023-05-05T12:53:36.912Z,7.23
2023-05-05T12:55:02.702Z,7.22
2023-05-05T12:56:33.470Z,7.38
2023-05-05T12:57:41.725Z,7.23
2023-05-05T12:58:50.313Z,7.22
2023-05-05T12:59:57.885Z,7.38
2023-05-05T13:01:12.568Z,7.39
2023-05-05T13:02:21.415Z,7.29
2023-05-05T13:03:29.227Z,7.22
2023-05-05T13:04:39.922Z,7.38
2023-05-05T13:05:47.447Z,7.37
2023-05-05T13:07:13.278Z,7.48
2023-05-05T13:08:20.336Z,7.26
2023-05-05T13:09:40.518Z,7.30
2023-05-05T13:11:01.136Z,7.19
2023-05-05T13:12:09.589Z,7.31
2023-05-05T13:13:16.415Z,7.33
2023-05-05T13:14:23.216Z,7.26
2023-05-05T13:15:30.094Z,7.21
2023-05-05T13:16:37.143Z,7.20
2023-05-05T13:17:43.713Z,7.15
2023-05-05T13:18:51.224Z,7.27
2023-05-05T13:19:57.851Z,7.21
2023-05-05T13:21:04.722Z,7.17
2023-05-05T13:22:11.691Z,7.34
2023-05-05T13:23:18.753Z,7.28
2023-05-05T13:24:38.195Z,7.24
2023-05-05T13:25:52.969Z,7.10
2023-05-05T13:27:00.306Z,7.27
2023-05-05T13:28:07.168Z,7.14
2023-05-05T13:29:17.221Z,7.29
2023-05-05T13:30:24.337Z,7.29
2023-05-05T13:31:31.155Z,7.11
2023-05-05T13:32:38.518Z,7.13
2023-05-05T13:33:45.327Z,7.23
2023-05-05T13:34:55.657Z,7.25
2023-05-05T13:36:05.265Z,7.33
2023-05-05T13:37:11.811Z,7.18
2023-05-05T13:38:18.394Z,7.17
2023-05-05T13:39:26.128Z,7.13
2023-05-05T13:40:33.524Z,7.31
2023-05-05T13:41:41.232Z,7.15
2023-05-05T13:42:48.234Z,7.08
2023-05-05T13:43:55.121Z,7.14
2023-05-05T13:45:02.303Z,7.28
2023-05-05T13:46:22.257Z,7.34
2023-05-05T13:47:29.354Z,7.15
2023-05-05T13:48:36.353Z,7.19
2023-05-05T13:49:43.274Z,7.31
2023-05-05T13:50:50.335Z,7.21
2023-05-05T13:51:57.481Z,7.19
2023-05-05T13:53:04.962Z,7.09
2023-05-05T13:54:12.313Z,6.89
2023-05-05T13:55:22.586Z,7.08
2023-05-05T13:56:32.722Z,7.17
2023-05-05T13:57:39.567Z,7.25
2023-05-05T13:58:46.940Z,7.20
2023-05-05T13:59:53.865Z,7.02
2023-05-05T14:01:00.428Z,6.95
2023-05-05T14:02:09.822Z,7.09
2023-05-05T14:03:16.868Z,6.97
2023-05-05T14:04:24.158Z,7.21
2023-05-05T14:05:31.134Z,7.18
2023-05-05T14:06:38.447Z,7.17
2023-05-05T14:07:45.168Z,7.07
2023-05-05T14:08:52.374Z,6.93
2023-05-05T14:09:59.761Z,6.98
2023-05-05T14:11:06.613Z,6.76
2023-05-05T14:12:16.748Z,6.80
2023-05-05T14:13:24.240Z,6.92
2023-05-05T14:14:34.748Z,7.04
2023-05-05T14:15:43.089Z,7.12
2023-05-05T14:16:50.610Z,6.95
2023-05-05T14:17:58.648Z,7.03
2023-05-05T14:19:05.773Z,6.91
2023-05-05T14:20:13.648Z,6.91
2023-05-05T14:21:20.517Z,6.91
2023-05-05T14:22:28.110Z,6.94
2023-05-05T14:23:34.936Z,6.99
2023-05-05T14:24:41.477Z,7.05
2023-05-05T14:25:48.860Z,7.06
2023-05-05T14:26:56.575Z,6.91
2023-05-05T14:28:06.844Z,6.98
2023-05-05T14:29:13.857Z,7.08
2023-05-05T14:30:21.250Z,6.94
2023-05-05T14:31:28.806Z,6.93
2023-05-05T14:32:36.044Z,6.89
2023-05-05T14:33:42.936Z,6.92
2023-05-05T14:34:50.523Z,6.92
2023-05-05T14:35:57.483Z,6.92
2023-05-05T14:37:04.728Z,6.79
2023-05-05T14:38:11.848Z,6.88
2023-05-05T14:39:20.320Z,6.80
2023-05-05T14:40:28.742Z,6.97
2023-05-05T14:41:37.681Z,6.80
2023-05-05T14:42:44.312Z,6.88
2023-05-05T14:43:52.581Z,6.94
2023-05-05T14:44:59.668Z,6.85
2023-05-05T14:46:08.099Z,6.82
2023-05-05T14:47:18.341Z,6.98
2023-05-05T14:48:28.426Z,6.88
2023-05-05T14:49:36.569Z,6.95
2023-05-05T14:50:44.332Z,6.85
2023-05-05T14:51:51.945Z,6.87
2023-05-05T14:52:59.686Z,6.71
2023-05-05T14:54:14.295Z,6.89
2023-05-05T14:55:28.255Z,6.83
2023-05-05T14:56:35.200Z,6.93
2023-05-05T14:57:42.705Z,6.96
2023-05-05T14:58:49.856Z,6.85
2023-05-05T14:59:58.328Z,7.05
2023-05-05T15:01:06.144Z,6.92
2023-05-05T15:02:13.732Z,6.81
2023-05-05T15:03:21.634Z,6.90
2023-05-05T15:04:28.779Z,6.95
2023-05-05T15:05:37.238Z,6.88
2023-05-05T15:06:44.418Z,6.71
2023-05-05T15:07:51.653Z,6.83
2023-05-05T15:08:58.615Z,6.89
2023-05-05T15:10:07.654Z,6.83
2023-05-05T15:11:15.977Z,6.98
2023-05-05T15:12:23.622Z,7.20
2023-05-05T15:13:31.734Z,7.25
2023-05-05T15:14:39.653Z,7.20
2023-05-05T15:15:47.217Z,7.51
2023-05-05T15:16:55.147Z,7.59
2023-05-05T15:18:03.263Z,7.63
2023-05-05T15:19:10.597Z,7.60
2023-05-05T15:20:17.965Z,7.61
2023-05-05T15:21:24.551Z,7.71
2023-05-05T15:22:32.090Z,7.73
2023-05-05T15:23:39.319Z,7.86